Time;durP1;ratioP1;P1;durP2;ratioP2;P2;SDS_P1;SDS_P2;PMS_P1;PMS_P2;Temp;Humidity;BMP_temperature;BMP_pressure;BME280_temperature;BME280_humidity;BME280_pressure;Samples;Min_cycle;Max_cycle;Signal;HPM_P1;HPM_P2
2022/10/07 00:01:19;;;;;;;0.28;0.28;;;;;;;12.75;100.00;101242.31;6336162;22;20006;-86
2022/10/07 00:03:44;;;;;;;0.65;0.65;;;;;;;12.79;100.00;101243.03;6335894;22;20084;-85
2022/10/07 00:06:18;;;;;;;1.23;1.13;;;;;;;12.76;100.00;101246.66;6335851;22;20371;-77
2022/10/07 00:08:46;;;;;;;1.00;0.70;;;;;;;12.76;100.00;101237.53;6333372;22;20007;-78
2022/10/07 00:11:15;;;;;;;0.43;0.43;;;;;;;12.82;100.00;101239.41;6336157;22;20006;-78
2022/10/07 00:13:42;;;;;;;1.20;0.95;;;;;;;12.79;100.00;101234.69;6337588;22;20011;-78
2022/10/07 00:16:13;;;;;;;0.68;0.68;;;;;;;12.82;100.00;101231.03;6310889;22;20013;-78
2022/10/07 00:18:40;;;;;;;1.10;1.02;;;;;;;12.82;100.00;101233.81;6337335;22;20451;-78
2022/10/07 00:21:07;;;;;;;1.20;0.80;;;;;;;12.77;100.00;101225.97;6338161;22;20011;-78
2022/10/07 00:23:33;;;;;;;1.23;1.17;;;;;;;12.83;100.00;101232.63;6337029;22;20007;-78
2022/10/07 00:26:00;;;;;;;1.13;1.05;;;;;;;12.88;100.00;101229.38;6338038;22;20018;-86
2022/10/07 00:28:26;;;;;;;3.95;1.33;;;;;;;12.85;100.00;101227.44;6337727;22;20006;-87
2022/10/07 00:31:05;;;;;;;0.85;0.85;;;;;;;12.76;100.00;101220.81;6310039;22;20098;-86
2022/10/07 00:33:35;;;;;;;0.95;0.75;;;;;;;12.75;100.00;101220.03;6335570;22;20011;-86
2022/10/07 00:36:01;;;;;;;0.98;0.65;;;;;;;12.80;100.00;101219.56;6310634;22;20053;-86
2022/10/07 00:38:27;;;;;;;0.52;0.52;;;;;;;12.78;100.00;101212.84;6283346;22;20507;-86
2022/10/07 00:40:52;;;;;;;0.50;0.50;;;;;;;12.77;100.00;101205.69;6309909;22;20102;-86
2022/10/07 00:43:23;;;;;;;1.75;1.65;;;;;;;12.75;100.00;101208.91;6309871;22;20383;-78
2022/10/07 00:45:49;;;;;;;0.40;0.40;;;;;;;12.79;100.00;101215.19;6309831;22;20011;-78
2022/10/07 00:48:21;;;;;;;3.28;1.88;;;;;;;12.76;100.00;101204.13;6337295;22;20049;-78
2022/10/07 00:50:48;;;;;;;0.90;0.85;;;;;;;12.80;100.00;101208.41;6310147;22;20074;-77
2022/10/07 00:53:15;;;;;;;1.17;0.75;;;;;;;12.82;100.00;101196.88;6337242;22;20341;-78
2022/10/07 00:55:41;;;;;;;14.27;1.05;;;;;;;12.85;100.00;101202.38;6336656;22;20006;-78
2022/10/07 00:58:08;;;;;;;0.75;0.70;;;;;;;12.81;100.00;101206.44;6309719;22;20425;-78
2022/10/07 01:00:35;;;;;;;0.50;0.35;;;;;;;12.73;100.00;101202.19;6337557;22;20010;-78
2022/10/07 01:03:01;;;;;;;1.55;1.20;;;;;;;12.70;100.00;101184.31;6335601;22;20015;-86
2022/10/07 01:05:26;;;;;;;0.20;0.20;;;;;;;12.67;100.00;101199.09;6310167;22;20011;-86
2022/10/07 01:07:52;;;;;;;0.08;0.08;;;;;;;12.61;100.00;101193.25;6336904;22;20455;-86
2022/10/07 01:10:18;;;;;;;0.60;0.60;;;;;;;12.56;100.00;101190.94;6336907;22;20062;-86
2022/10/07 01:13:09;;;;;;;0.57;0.57;;;;;;;12.51;100.00;101187.81;6336932;22;20014;-86
2022/10/07 01:15:42;;;;;;;0.00;0.00;;;;;;;12.47;100.00;101192.66;6309091;22;20019;-86
2022/10/07 01:18:17;;;;;;;1.85;1.08;;;;;;;12.42;100.00;101180.00;6283457;22;20333;-86
2022/10/07 01:21:27;;;;;;;0.88;0.88;;;;;;;12.38;100.00;101182.06;6310124;22;20050;-86
2022/10/07 01:24:23;;;;;;;0.80;0.75;;;;;;;12.37;100.00;101172.16;6320517;22;20019;-77
2022/10/07 01:26:56;;;;;;;1.50;1.25;;;;;;;12.36;100.00;101170.59;6309783;22;20057;-78
2022/10/07 01:30:14;;;;;;;0.00;0.00;;;;;;;12.31;100.00;101161.91;6308963;22;20577;-77
2022/10/07 01:32:54;;;;;;;0.55;0.50;;;;;;;12.24;100.00;101162.03;6225141;22;20015;-77
2022/10/07 01:35:24;;;;;;;0.63;0.47;;;;;;;12.20;100.00;101170.44;6308606;22;20068;-77
2022/10/07 01:37:52;;;;;;;0.90;0.75;;;;;;;12.15;100.00;101166.13;6309442;22;20010;-78
2022/10/07 01:40:21;;;;;;;0.47;0.47;;;;;;;12.11;100.00;101167.41;6337558;22;20003;-86
2022/10/07 01:42:47;;;;;;;1.27;0.77;;;;;;;12.02;100.00;101165.13;6309020;22;20017;-86
2022/10/07 01:45:20;;;;;;;0.88;0.82;;;;;;;12.03;100.00;101163.94;6309333;22;20014;-86
2022/10/07 01:47:46;;;;;;;0.10;0.10;;;;;;;12.01;100.00;101157.22;6310633;22;20506;-86
2022/10/07 01:50:13;;;;;;;0.93;0.35;;;;;;;12.00;100.00;101156.44;6309107;22;20339;-86
2022/10/07 01:53:03;;;;;;;2.65;1.00;;;;;;;11.85;100.00;101141.16;6335102;22;20114;-86
2022/10/07 01:56:06;;;;;;;0.08;0.08;;;;;;;11.82;100.00;101135.63;6337310;22;20344;-86
2022/10/07 01:58:52;;;;;;;1.38;0.93;;;;;;;11.83;100.00;101148.34;6334786;22;20352;-86
2022/10/07 02:01:30;;;;;;;0.30;0.30;;;;;;;11.72;100.00;101142.94;6309424;22;20508;-77
2022/10/07 02:04:43;;;;;;;0.30;0.30;;;;;;;11.66;100.00;101155.69;6307824;22;20360;-77
2022/10/07 02:07:36;;;;;;;0.70;0.70;;;;;;;11.58;100.00;101149.44;6302701;22;20015;-77
2022/10/07 02:10:30;;;;;;;0.30;0.30;;;;;;;11.53;100.00;101146.31;6309287;22;20052;-76
2022/10/07 02:13:04;;;;;;;0.57;0.57;;;;;;;11.48;100.00;101141.25;6337053;22;20015;-77
2022/10/07 02:15:43;;;;;;;0.10;0.10;;;;;;;11.49;100.00;101145.59;6337031;22;20017;-76
2022/10/07 02:18:14;;;;;;;0.30;0.30;;;;;;;11.47;100.00;101142.44;6308932;22;20460;-76
2022/10/07 02:20:40;;;;;;;0.65;0.52;;;;;;;11.44;100.00;101146.06;6283222;22;20015;-86
2022/10/07 02:23:07;;;;;;;0.00;0.00;;;;;;;11.41;100.00;101144.09;6309916;22;20084;-85
2022/10/07 02:25:37;;;;;;;0.22;0.15;;;;;;;11.38;100.00;101139.38;6283261;22;20018;-85
2022/10/07 02:28:05;;;;;;;0.30;0.25;;;;;;;11.38;100.00;101142.16;6283602;22;20021;-83
2022/10/07 02:30:32;;;;;;;0.43;0.43;;;;;;;11.36;100.00;101150.13;6309442;22;20003;-85
2022/10/07 02:33:02;;;;;;;0.63;0.63;;;;;;;11.33;100.00;101148.94;6282040;22;20015;-86
2022/10/07 02:35:28;;;;;;;0.13;0.13;;;;;;;11.29;100.00;101144.63;6309405;22;20015;-85
2022/10/07 02:37:55;;;;;;;0.08;0.08;;;;;;;11.21;100.00;101144.72;6336634;22;20011;-77
2022/10/07 02:40:22;;;;;;;0.30;0.30;;;;;;;11.26;100.00;101142.69;6336929;22;20429;-76
2022/10/07 02:42:57;;;;;;;1.20;1.10;;;;;;;11.23;100.00;101145.13;6283035;22;20337;-77
2022/10/07 02:45:44;;;;;;;0.73;0.73;;;;;;;11.20;100.00;101145.94;6308406;22;20049;-76
2022/10/07 02:48:21;;;;;;;1.17;0.68;;;;;;;11.21;100.00;101146.72;6308838;22;20011;-77
2022/10/07 02:50:51;;;;;;;0.45;0.45;;;;;;;11.16;100.00;101145.19;6282819;22;20086;-77
2022/10/07 02:53:18;;;;;;;0.47;0.47;;;;;;;11.08;100.00;101148.47;6334716;22;20055;-77
2022/10/07 02:55:47;;;;;;;0.63;0.40;;;;;;;11.08;100.00;101143.69;6282711;22;20088;-77
2022/10/07 02:58:14;;;;;;;0.80;0.77;;;;;;;11.06;100.00;101142.53;6308827;22;20060;-85
2022/10/07 03:00:45;;;;;;;0.03;0.03;;;;;;;11.07;100.00;101139.34;6307967;22;20079;-85
2022/10/07 03:03:12;;;;;;;0.43;0.43;;;;;;;11.07;100.00;101136.59;6282812;22;20011;-85
2022/10/07 03:05:48;;;;;;;0.55;0.55;;;;;;;11.01;100.00;101143.78;6308398;22;19999;-85
2022/10/07 03:08:14;;;;;;;0.15;0.15;;;;;;;10.99;100.00;101137.84;6308654;22;20046;-86
2022/10/07 03:10:41;;;;;;;0.35;0.35;;;;;;;10.95;100.00;101126.00;6335870;22;20006;-85
2022/10/07 03:13:08;;;;;;;0.05;0.05;;;;;;;10.96;100.00;101127.56;6308620;22;20023;-86
2022/10/07 03:15:36;;;;;;;0.95;0.95;;;;;;;10.95;100.00;101123.22;6308085;22;20430;-76
2022/10/07 03:18:03;;;;;;;0.80;0.80;;;;;;;10.99;100.00;101129.53;6282253;22;20448;-84
2022/10/07 03:20:33;;;;;;;0.43;0.43;;;;;;;11.00;100.00;101122.75;6308181;22;20046;-85
2022/10/07 03:22:59;;;;;;;2.05;0.85;;;;;;;11.02;100.00;101128.69;6334611;22;20022;-85
2022/10/07 03:25:25;;;;;;;1.15;1.00;;;;;;;10.98;100.00;101122.41;6283441;22;20011;-85
2022/10/07 03:27:55;;;;;;;1.25;1.15;;;;;;;10.91;100.00;101118.91;6308240;22;20013;-85
2022/10/07 03:30:21;;;;;;;0.77;0.77;;;;;;;10.92;100.00;101118.47;6335073;22;20011;-86
2022/10/07 03:32:49;;;;;;;0.95;0.95;;;;;;;10.91;100.00;101124.47;6308419;22;20028;-85
2022/10/07 03:35:15;;;;;;;0.38;0.38;;;;;;;10.84;100.00;101119.75;6333536;22;20014;-77
2022/10/07 03:37:41;;;;;;;2.53;1.85;;;;;;;10.80;100.00;101127.34;6333353;22;20030;-77
2022/10/07 03:40:09;;;;;;;1.52;1.20;;;;;;;10.76;100.00;101132.13;6334607;22;20014;-76
2022/10/07 03:42:36;;;;;;;0.20;0.20;;;;;;;10.73;100.00;101124.63;6335093;22;20017;-77
2022/10/07 03:45:05;;;;;;;0.55;0.55;;;;;;;10.69;100.00;101126.66;6307931;22;20439;-76
2022/10/07 03:47:30;;;;;;;0.73;0.73;;;;;;;10.69;100.00;101126.66;6309590;22;20018;-76
2022/10/07 03:49:56;;;;;;;0.10;0.10;;;;;;;10.64;100.00;101119.56;6336090;22;20398;-76
2022/10/07 03:52:22;;;;;;;1.17;1.08;;;;;;;10.65;100.00;101120.34;6309915;22;20089;-76
2022/10/07 03:54:48;;;;;;;1.25;0.88;;;;;;;10.65;100.00;101131.47;6336226;22;20344;-85
2022/10/07 03:59:59;;;;;;;0.45;0.45;;;;;;;10.67;100.00;101118.75;6336007;22;20019;-85
2022/10/07 04:02:24;;;;;;;1.05;1.02;;;;;;;10.66;100.00;101125.50;6309852;22;20463;-85
2022/10/07 04:04:51;;;;;;;0.30;0.30;;;;;;;10.66;100.00;101119.16;6309836;22;20019;-87
2022/10/07 04:07:21;;;;;;;0.85;0.55;;;;;;;10.63;100.00;101123.56;6309863;22;20026;-87
2022/10/07 04:09:48;;;;;;;1.48;1.38;;;;;;;10.60;100.00;101123.56;6310296;22;20015;-87
2022/10/07 04:12:13;;;;;;;0.40;0.22;;;;;;;10.56;100.00;101117.25;6337999;22;20009;-87
2022/10/07 04:14:39;;;;;;;1.92;1.02;;;;;;;10.54;100.00;101105.81;6336434;22;20057;-78
2022/10/07 04:17:06;;;;;;;0.40;0.40;;;;;;;10.55;100.00;101110.16;6309595;22;20015;-77
2022/10/07 04:19:32;;;;;;;0.55;0.55;;;;;;;10.50;100.00;101099.50;6309501;22;20027;-77
2022/10/07 04:21:59;;;;;;;1.00;0.63;;;;;;;10.48;100.00;101121.31;6309277;22;20034;-75
2022/10/07 04:24:25;;;;;;;1.58;1.15;;;;;;;10.44;100.00;101106.69;6309961;22;20440;-75
2022/10/07 04:26:50;;;;;;;0.80;0.80;;;;;;;10.41;100.00;101104.72;6337203;22;20034;-74
2022/10/07 04:29:16;;;;;;;0.30;0.30;;;;;;;10.43;100.00;101102.34;6310075;22;20326;-84
2022/10/07 04:31:41;;;;;;;0.57;0.57;;;;;;;10.40;100.00;101112.25;6310031;22;20310;-84
2022/10/07 04:34:07;;;;;;;0.20;0.20;;;;;;;10.37;100.00;101115.06;6309295;22;20010;-75
2022/10/07 04:36:37;;;;;;;0.63;0.57;;;;;;;10.26;100.00;101104.06;6336244;22;20014;-75
2022/10/07 04:39:06;;;;;;;2.28;0.50;;;;;;;10.23;100.00;101105.66;6308729;22;20462;-75
2022/10/07 04:41:49;;;;;;;0.70;0.70;;;;;;;10.19;100.00;101102.13;6336794;22;20003;-75
2022/10/07 04:44:20;;;;;;;0.30;0.30;;;;;;;10.15;100.00;101109.69;6309610;22;20006;-78
2022/10/07 04:46:56;;;;;;;0.22;0.22;;;;;;;10.12;100.00;101099.41;6335591;22;20029;-77
2022/10/07 04:49:24;;;;;;;0.52;0.50;;;;;;;10.09;100.00;101100.22;6309237;22;20011;-77
2022/10/07 04:51:51;;;;;;;1.63;1.15;;;;;;;10.01;100.00;101093.16;6308991;22;20375;-90
2022/10/07 04:54:17;;;;;;;2.42;1.55;;;;;;;9.99;100.00;101098.31;6335291;22;20014;-84
2022/10/07 04:56:48;;;;;;;2.40;1.17;;;;;;;10.02;100.00;101094.75;6309041;22;20021;-84
2022/10/07 04:59:14;;;;;;;0.57;0.57;;;;;;;10.02;100.00;101093.94;6335202;22;20076;-84
2022/10/07 05:01:41;;;;;;;2.10;1.40;;;;;;;10.02;100.00;101099.50;6309957;22;20384;-86
2022/10/07 05:04:09;;;;;;;0.63;0.63;;;;;;;10.02;100.00;101099.50;6335369;22;20046;-86
2022/10/07 05:06:35;;;;;;;0.68;0.65;;;;;;;9.98;100.00;101099.53;6337086;22;20003;-86
2022/10/07 05:09:00;;;;;;;2.50;1.33;;;;;;;9.96;100.00;101101.91;6308497;22;20045;-86
2022/10/07 05:11:29;;;;;;;1.08;0.98;;;;;;;10.00;100.00;101101.88;6307222;22;20014;-78
2022/10/07 05:14:00;;;;;;;2.67;1.02;;;;;;;10.04;100.00;101097.88;6307992;22;20011;-77
2022/10/07 05:16:26;;;;;;;1.08;0.93;;;;;;;10.06;100.00;101098.28;6309005;22;20007;-76
2022/10/07 05:18:52;;;;;;;1.15;1.05;;;;;;;10.07;100.00;101097.06;6336577;22;20007;-77
2022/10/07 05:21:17;;;;;;;0.13;0.13;;;;;;;10.10;100.00;101101.81;6308562;22;20097;-77
2022/10/07 05:23:45;;;;;;;1.02;0.88;;;;;;;10.09;100.00;101093.88;6308638;22;20029;-78
2022/10/07 05:26:15;;;;;;;1.88;1.27;;;;;;;10.13;100.00;101103.75;6284782;22;20038;-76
2022/10/07 05:28:47;;;;;;;0.75;0.75;;;;;;;10.09;100.00;101097.44;6337608;22;20014;-84
2022/10/07 05:31:15;;;;;;;0.77;0.75;;;;;;;10.12;100.00;101093.84;6310654;22;20019;-85
2022/10/07 05:33:46;;;;;;;0.93;0.93;;;;;;;10.15;100.00;101098.59;6308235;22;20015;-85
2022/10/07 05:36:12;;;;;;;0.75;0.75;;;;;;;10.20;100.00;101100.94;6337025;22;20007;-86
2022/10/07 05:38:39;;;;;;;0.63;0.63;;;;;;;10.26;100.00;101096.56;6309164;22;20408;-86
2022/10/07 05:41:06;;;;;;;2.42;1.58;;;;;;;10.27;100.00;101089.78;6309374;22;20010;-84
2022/10/07 05:43:36;;;;;;;0.73;0.63;;;;;;;10.35;100.00;101095.28;6282288;22;20456;-86
2022/10/07 05:46:06;;;;;;;1.10;1.00;;;;;;;10.42;100.00;101098.78;6308555;22;20353;-76
2022/10/07 05:48:36;;;;;;;0.52;0.52;;;;;;;10.47;100.00;101105.88;6306211;22;20015;-86
2022/10/07 05:51:02;;;;;;;1.42;1.08;;;;;;;10.54;100.00;101092.72;6334133;22;20003;-85
2022/10/07 05:53:29;;;;;;;2.20;1.23;;;;;;;10.60;100.00;101113.25;6334426;22;20015;-86
2022/10/07 05:55:56;;;;;;;1.92;1.83;;;;;;;10.67;100.00;101104.09;6335036;22;20015;-86
2022/10/07 07:24:58;;;;;;;1.85;1.67;;;;;;;15.94;100.00;101139.88;6311610;22;19918;-76
2022/10/07 07:27:24;;;;;;;1.23;0.93;;;;;;;16.14;100.00;101140.44;6308859;22;20373;-76
2022/10/07 07:29:49;;;;;;;1.40;1.30;;;;;;;16.34;100.00;101141.78;6333600;22;20018;-76
2022/10/07 07:32:16;;;;;;;1.30;1.20;;;;;;;16.47;100.00;101133.34;6306513;22;20065;-76
2022/10/07 07:34:42;;;;;;;1.63;1.52;;;;;;;16.72;100.00;101136.13;6282816;22;20072;-76
2022/10/07 07:37:12;;;;;;;2.28;2.08;;;;;;;16.86;100.00;101143.28;6283659;22;20010;-77
2022/10/07 07:39:43;;;;;;;1.02;1.02;;;;;;;17.16;100.00;101133.38;6333236;22;20027;-77
2022/10/07 07:42:12;;;;;;;2.50;2.30;;;;;;;17.32;100.00;101141.59;6308549;22;20449;-77
2022/10/07 07:44:39;;;;;;;5.45;1.73;;;;;;;17.34;100.00;101139.13;6334239;22;20029;-86
2022/10/07 07:47:08;;;;;;;2.17;1.70;;;;;;;17.45;100.00;101136.69;6307649;22;20292;-86
2022/10/07 07:49:34;;;;;;;1.45;1.35;;;;;;;17.67;100.00;101134.66;6334274;22;20284;-86
2022/10/07 07:52:01;;;;;;;2.38;2.05;;;;;;;17.83;100.00;101135.69;6308100;22;20015;-86
2022/10/07 07:54:32;;;;;;;1.80;1.42;;;;;;;17.87;100.00;101131.50;6308264;22;20007;-86
2022/10/07 07:56:59;;;;;;;1.90;1.25;;;;;;;17.97;99.20;101138.72;6333806;22;20014;-87
2022/10/07 07:59:28;;;;;;;1.38;1.13;;;;;;;17.96;99.81;101133.56;6308304;22;20003;-86
2022/10/07 08:01:56;;;;;;;1.77;1.67;;;;;;;18.02;98.67;101137.34;6307824;22;20053;-77
2022/10/07 08:04:22;;;;;;;2.83;2.30;;;;;;;18.13;98.52;101137.69;6306885;22;20025;-77
2022/10/07 08:06:49;;;;;;;4.43;1.25;;;;;;;18.22;97.18;101132.09;6307931;22;20467;-77
2022/10/07 08:09:15;;;;;;;5.55;1.30;;;;;;;18.10;98.46;101133.00;6308115;22;20007;-77
2022/10/07 08:11:44;;;;;;;3.38;1.85;;;;;;;18.21;97.63;101133.34;6334413;22;20011;-77
2022/10/07 08:14:12;;;;;;;3.05;2.70;;;;;;;18.23;96.59;101135.69;6334015;22;20093;-77
2022/10/07 08:16:38;;;;;;;4.03;1.27;;;;;;;18.13;97.25;101137.69;6308163;22;20377;-77
2022/10/07 08:19:04;;;;;;;1.33;1.23;;;;;;;18.03;98.12;101128.47;6306850;22;20003;-85
2022/10/07 08:21:33;;;;;;;1.95;1.80;;;;;;;18.12;99.26;101133.31;6282541;22;20084;-76
2022/10/07 08:24:01;;;;;;;1.55;1.38;;;;;;;18.16;98.93;101131.13;6308555;22;20101;-76
2022/10/07 08:26:31;;;;;;;2.47;1.75;;;;;;;18.22;98.35;101126.50;6283225;22;20042;-76
2022/10/07 08:28:59;;;;;;;1.55;1.45;;;;;;;18.31;97.38;101122.91;6307852;22;20007;-76
2022/10/07 08:31:28;;;;;;;1.58;1.48;;;;;;;18.45;96.55;101125.91;6308068;22;20010;-76
2022/10/07 08:33:56;;;;;;;1.40;1.27;;;;;;;18.44;95.98;101129.19;6308728;22;20007;-76
2022/10/07 08:36:23;;;;;;;1.38;1.27;;;;;;;18.42;97.58;101138.09;6310110;22;20003;-76
2022/10/07 08:38:49;;;;;;;2.80;1.77;;;;;;;18.34;97.12;101131.19;6337772;22;20011;-86
2022/10/07 08:41:53;;;;;;;2.20;1.20;;;;;;;18.28;99.07;101133.03;6309998;22;20042;-76
2022/10/07 08:44:31;;;;;;;4.15;1.48;;;;;;;18.48;99.64;101124.97;6325680;22;20022;-76
2022/10/07 08:47:18;;;;;;;1.85;1.75;;;;;;;18.67;98.09;101123.03;6310191;22;20007;-76
2022/10/07 08:50:00;;;;;;;1.95;1.85;;;;;;;18.85;97.98;101122.22;6309238;22;20041;-76
2022/10/07 08:52:40;;;;;;;2.08;1.90;;;;;;;18.97;96.96;101118.50;6337387;22;20011;-77
2022/10/07 08:55:41;;;;;;;2.08;1.92;;;;;;;18.92;95.69;101113.50;6309638;22;20378;-77
2022/10/07 08:58:29;;;;;;;2.00;1.75;;;;;;;19.15;95.65;101101.63;6330741;22;20023;-76
2022/10/07 09:01:07;;;;;;;1.65;1.52;;;;;;;19.12;94.44;101110.22;6337332;22;20015;-86
2022/10/07 09:03:50;;;;;;;3.13;1.92;;;;;;;19.34;93.11;101100.34;6336190;22;20022;-85
2022/10/07 09:06:26;;;;;;;5.97;3.33;;;;;;;19.08;93.85;101099.13;6337286;22;20035;-86
2022/10/07 09:08:58;;;;;;;2.08;1.90;;;;;;;19.29;95.12;101098.16;6337593;22;20011;-85
2022/10/07 09:11:24;;;;;;;1.43;1.33;;;;;;;19.48;93.82;101094.09;6310310;22;20010;-85
2022/10/07 09:14:03;;;;;;;4.72;1.33;;;;;;;19.66;92.63;101084.00;6337227;22;20005;-86
2022/10/07 09:16:35;;;;;;;3.08;1.95;;;;;;;19.83;92.09;101079.56;6284114;22;20445;-85
2022/10/07 09:19:02;;;;;;;2.38;2.17;;;;;;;19.74;88.84;101076.78;6308358;22;20030;-76
2022/10/07 09:21:47;;;;;;;4.40;2.95;;;;;;;19.59;92.05;101076.69;6337214;22;20038;-76
2022/10/07 09:24:22;;;;;;;1.80;1.65;;;;;;;19.67;91.10;101079.94;6336653;22;20015;-76
2022/10/07 09:26:47;;;;;;;2.25;1.55;;;;;;;19.51;91.13;101073.44;6336917;22;20015;-76
2022/10/07 09:29:15;;;;;;;2.03;1.67;;;;;;;19.43;91.24;101075.03;6336416;22;20034;-76
2022/10/07 09:31:41;;;;;;;1.88;1.73;;;;;;;19.53;92.83;101062.47;6337342;22;20456;-76
2022/10/07 09:34:16;;;;;;;1.73;1.20;;;;;;;19.76;90.45;101063.81;6335930;22;20011;-78
2022/10/07 09:37:13;;;;;;;2.63;1.85;;;;;;;20.00;89.59;101069.47;6309662;22;20010;-78
2022/10/07 09:39:39;;;;;;;1.92;1.75;;;;;;;19.93;87.62;101061.38;6324219;22;20041;-86
2022/10/07 09:42:29;;;;;;;4.90;2.38;;;;;;;19.95;86.33;101065.28;6284510;22;20014;-87
2022/10/07 09:44:58;;;;;;;1.58;1.42;;;;;;;20.08;86.53;101062.25;6309754;22;20034;-88
2022/10/07 09:47:26;;;;;;;1.38;1.27;;;;;;;20.21;88.57;101051.53;6309360;22;20444;-87
2022/10/07 09:49:58;;;;;;;2.25;1.10;;;;;;;20.40;87.55;101060.66;6308453;22;20011;-87
2022/10/07 09:52:32;;;;;;;2.13;1.48;;;;;;;20.68;87.31;101058.41;6336319;22;20459;-87
2022/10/07 09:55:31;;;;;;;2.67;1.92;;;;;;;20.66;83.64;101042.00;6336863;22;20011;-87
2022/10/07 09:58:01;;;;;;;2.53;1.60;;;;;;;20.67;85.73;101042.75;6309294;22;20108;-78
2022/10/07 10:00:28;;;;;;;3.42;1.85;;;;;;;20.91;85.02;101054.75;6336868;22;20019;-77
2022/10/07 10:03:06;;;;;;;2.17;1.38;;;;;;;20.87;81.10;101042.88;6336928;22;20077;-78
2022/10/07 10:05:36;;;;;;;2.28;1.35;;;;;;;20.86;83.19;101046.97;6308427;22;20064;-78
2022/10/07 10:08:17;;;;;;;0.82;0.60;;;;;;;21.16;80.08;101042.16;6335063;22;20010;-78
2022/10/07 10:10:55;;;;;;;0.57;0.55;;;;;;;21.01;82.07;101042.13;6336995;22;20501;-78
2022/10/07 10:13:36;;;;;;;3.13;1.65;;;;;;;20.92;82.49;101037.34;6309019;22;20200;-78
2022/10/07 10:16:08;;;;;;;0.90;0.90;;;;;;;21.21;81.40;101028.16;6336963;22;20064;-78
2022/10/07 10:18:39;;;;;;;1.23;1.15;;;;;;;21.37;79.34;101024.84;6309074;22;20089;-78
2022/10/07 10:21:18;;;;;;;0.75;0.75;;;;;;;21.09;81.22;101028.41;6308078;22;20336;-78
2022/10/07 10:24:05;;;;;;;1.52;1.20;;;;;;;21.30;77.96;101028.06;6336025;22;20021;-78
2022/10/07 10:27:05;;;;;;;0.85;0.77;;;;;;;21.30;79.29;101018.81;6303806;22;20043;-78
2022/10/07 10:29:42;;;;;;;2.40;1.88;;;;;;;21.30;78.46;101019.59;6302937;22;20011;-78
2022/10/07 10:32:17;;;;;;;1.13;0.82;;;;;;;21.36;77.42;101009.16;6305317;22;20031;-78
2022/10/07 10:35:24;;;;;;;1.30;1.10;;;;;;;21.17;78.63;101007.03;6305316;22;20065;-87
2022/10/07 10:37:49;;;;;;;1.77;1.67;;;;;;;21.40;78.48;101004.09;6210666;23;20478;-86
2022/10/07 10:40:53;;;;;;;2.22;1.42;;;;;;;21.52;78.20;100995.78;6283893;22;20094;-88
2022/10/07 10:43:34;;;;;;;1.05;1.02;;;;;;;21.45;75.60;100996.19;6303909;22;20382;-87
2022/10/07 10:46:11;;;;;;;1.67;1.58;;;;;;;21.43;76.30;100991.06;6304079;22;20043;-87
2022/10/07 10:49:11;;;;;;;2.40;2.03;;;;;;;21.09;76.24;100989.69;6329430;22;20465;-87
2022/10/07 10:51:58;;;;;;;1.40;1.15;;;;;;;21.03;77.40;100983.16;6306136;22;20022;-86
2022/10/07 10:54:30;;;;;;;1.00;0.90;;;;;;;21.24;76.26;100975.59;6328881;22;20089;-77
2022/10/07 10:57:29;;;;;;;0.55;0.52;;;;;;;21.23;75.58;100974.81;6304421;22;20065;-77
2022/10/07 11:00:13;;;;;;;1.33;1.23;;;;;;;21.45;76.08;100974.41;6305333;22;20386;-77
2022/10/07 11:02:43;;;;;;;1.05;0.98;;;;;;;21.31;74.27;100966.75;6303312;22;20010;-77
2022/10/07 11:05:20;;;;;;;2.03;1.92;;;;;;;21.35;75.28;100958.88;6303163;22;20353;-77
2022/10/07 11:07:53;;;;;;;1.63;1.17;;;;;;;21.49;75.45;100954.44;6305049;22;20046;-77
2022/10/07 11:10:22;;;;;;;1.20;0.77;;;;;;;21.75;73.39;100953.31;6327188;22;20512;-77
2022/10/07 11:13:15;;;;;;;1.17;1.00;;;;;;;21.69;73.34;100948.81;6303308;22;20011;-85
2022/10/07 11:15:47;;;;;;;1.52;1.42;;;;;;;21.54;74.29;100943.25;6304432;22;20085;-87
2022/10/07 11:18:21;;;;;;;1.75;1.10;;;;;;;21.34;75.03;100946.78;6303328;22;20021;-86
2022/10/07 11:20:48;;;;;;;1.33;1.23;;;;;;;21.09;76.40;100938.91;6277842;22;20068;-86
2022/10/07 11:23:22;;;;;;;4.40;0.82;;;;;;;21.32;75.61;100926.75;6305086;22;20360;-86
2022/10/07 11:25:52;;;;;;;2.63;1.30;;;;;;;21.57;75.99;100916.84;6301983;22;20026;-86
2022/10/07 11:28:28;;;;;;;3.47;0.93;;;;;;;21.99;73.76;100916.41;6277490;22;20077;-86
2022/10/07 11:31:06;;;;;;;2.25;2.05;;;;;;;22.25;73.25;100905.91;6304714;22;20007;-86
2022/10/07 11:33:47;;;;;;;1.15;0.93;;;;;;;22.51;72.03;100908.00;6304416;22;20094;-77
2022/10/07 11:36:15;;;;;;;5.07;1.35;;;;;;;22.37;70.74;100895.50;6304021;22;20015;-77
2022/10/07 11:38:41;;;;;;;1.60;1.50;;;;;;;22.19;70.47;100896.63;6302626;22;20015;-77
2022/10/07 11:41:11;;;;;;;2.25;1.38;;;;;;;21.80;72.43;100898.13;6303030;22;20008;-76
2022/10/07 11:43:46;;;;;;;1.02;0.95;;;;;;;21.73;73.29;100882.41;6302935;22;20457;-79
2022/10/07 11:46:24;;;;;;;2.20;2.00;;;;;;;21.75;73.73;100879.09;6301173;22;20007;-79
2022/10/07 11:49:15;;;;;;;1.00;0.95;;;;;;;21.84;73.71;100870.47;6304122;22;20022;-77
2022/10/07 11:52:10;;;;;;;1.02;0.95;;;;;;;22.23;74.61;100868.13;6305445;22;20039;-86
2022/10/07 11:54:48;;;;;;;9.32;2.25;;;;;;;22.32;70.90;100865.91;6303690;22;20011;-86
2022/10/07 11:57:35;;;;;;;2.30;1.38;;;;;;;21.92;71.27;100865.97;6304899;22;20015;-86
2022/10/07 12:00:21;;;;;;;0.88;0.88;;;;;;;21.73;72.96;100848.53;6304176;22;20017;-85
2022/10/07 12:02:47;;;;;;;1.77;1.13;;;;;;;21.80;71.64;100848.09;6302765;22;20456;-86
2022/10/07 12:05:35;;;;;;;1.00;1.00;;;;;;;21.83;72.69;100840.69;6328409;22;20039;-85
2022/10/07 12:08:25;;;;;;;0.98;0.95;;;;;;;22.02;70.76;100830.66;6305737;22;20011;-77
2022/10/07 12:10:54;;;;;;;1.45;1.35;;;;;;;22.31;71.19;100836.09;6304912;22;20011;-86
2022/10/07 12:13:19;;;;;;;4.35;1.63;;;;;;;22.35;69.31;100824.56;6305745;22;20007;-86
2022/10/07 12:15:46;;;;;;;1.40;1.30;;;;;;;22.42;67.94;100820.50;6305890;22;20003;-86
2022/10/07 12:18:17;;;;;;;1.52;1.42;;;;;;;22.49;67.09;100822.88;6330329;22;20015;-86
2022/10/07 12:20:49;;;;;;;0.98;0.90;;;;;;;22.48;68.14;100827.00;6330657;22;20345;-86
2022/10/07 12:23:18;;;;;;;0.63;0.63;;;;;;;22.54;67.06;100813.69;6305654;22;20018;-86
2022/10/07 12:25:51;;;;;;;0.95;0.93;;;;;;;22.15;67.96;100816.94;6305403;22;20069;-86
2022/10/07 12:28:20;;;;;;;1.15;1.02;;;;;;;21.96;68.51;100812.88;6304249;22;20022;-86
2022/10/07 12:30:51;;;;;;;1.27;1.17;;;;;;;21.91;69.99;100807.91;6305606;22;20046;-77
2022/10/07 12:33:44;;;;;;;1.30;1.02;;;;;;;22.32;68.66;100803.72;6305795;22;20038;-77
2022/10/07 12:36:25;;;;;;;1.60;1.17;;;;;;;22.37;66.69;100798.63;6305882;22;20033;-77
2022/10/07 12:39:11;;;;;;;1.65;1.55;;;;;;;22.02;66.97;100799.59;6329992;22;20011;-77
2022/10/07 12:41:41;;;;;;;0.70;0.70;;;;;;;22.04;67.70;100799.84;6283040;22;20016;-77
2022/10/07 12:44:38;;;;;;;0.90;0.90;;;;;;;22.29;69.41;100787.78;6304926;22;20015;-77
2022/10/07 12:47:04;;;;;;;1.77;1.38;;;;;;;22.41;67.49;100788.63;6304900;22;20082;-77
2022/10/07 12:49:51;;;;;;;1.23;1.05;;;;;;;22.65;66.64;100777.00;6305375;22;20011;-86
2022/10/07 12:52:32;;;;;;;0.77;0.77;;;;;;;22.64;66.27;100778.31;6304274;22;20080;-87
2022/10/07 12:55:09;;;;;;;1.70;1.55;;;;;;;22.84;66.69;100778.22;6305541;22;20090;-87
2022/10/07 12:57:41;;;;;;;1.85;1.40;;;;;;;22.79;66.25;100778.94;6303181;22;20091;-87
2022/10/07 13:00:12;;;;;;;1.73;1.63;;;;;;;22.78;64.32;100778.16;6303428;22;20012;-86
2022/10/07 13:02:44;;;;;;;1.45;1.10;;;;;;;22.71;65.02;100760.88;6278828;22;20012;-86
2022/10/07 13:05:34;;;;;;;1.50;1.40;;;;;;;22.61;66.59;100765.16;6305830;22;20070;-86
2022/10/07 13:08:30;;;;;;;0.80;0.60;;;;;;;22.59;64.80;100760.00;6301984;22;20034;-77
2022/10/07 13:11:30;;;;;;;2.08;1.33;;;;;;;22.83;66.19;100750.41;6302635;22;20042;-77
2022/10/07 13:14:01;;;;;;;0.55;0.55;;;;;;;22.83;63.44;100756.84;6302162;22;20025;-77
2022/10/07 13:16:36;;;;;;;1.00;0.88;;;;;;;22.54;64.17;100757.13;6304239;22;20007;-77
2022/10/07 13:19:05;;;;;;;2.00;1.45;;;;;;;22.57;64.61;100756.91;6305396;22;20034;-77